Terminal Aerodrome Forecast
Issued by NWS Sterling, VA

Current Version | Previous Version | Graphics & Text | Print | Product List | Glossary On
Versions: 1 2 3 4 5 6 7 8 9 10 11 12 13 14 15 16 17 18 19 20 21 22 23 24 25 26 27 28 29
000
FTUS41 KLWX 191100
TAFIAD
TAF
KIAD 191130Z 1912/2018 33010G18KT P6SM SCT035 BKN050
     FM191500 32016G26KT P6SM BKN040
     FM192200 31009KT P6SM FEW250
     FM200000 VRB04KT P6SM FEW250
     FM201400 18005KT P6SM SCT250=

USA.gov is the U.S. government's official web portal to all federal, state and local government web resources and services.